createdAt,value
2017-10-22T00:00:55.485Z,70.66
2017-10-22T00:02:02.303Z,70.68
2017-10-22T00:03:09.098Z,70.71
2017-10-22T00:04:16.046Z,70.76
2017-10-22T00:05:22.909Z,70.79
2017-10-22T00:06:29.746Z,70.84
2017-10-22T00:07:36.845Z,70.85
2017-10-22T00:08:43.638Z,70.85
2017-10-22T00:09:50.472Z,70.86
2017-10-22T00:10:57.311Z,70.93
2017-10-22T00:12:04.114Z,70.95
2017-10-22T00:13:11.104Z,70.91
2017-10-22T00:14:17.909Z,70.91
2017-10-22T00:15:24.793Z,70.93
2017-10-22T00:16:31.813Z,70.95
2017-10-22T00:17:38.545Z,70.95
2017-10-22T00:18:45.305Z,70.93
2017-10-22T00:19:52.083Z,70.94
2017-10-22T00:20:59.055Z,71.01
2017-10-22T00:22:05.833Z,71.03
2017-10-22T00:23:12.685Z,71.02
2017-10-22T00:24:19.450Z,71.01
2017-10-22T00:25:26.237Z,71.02
2017-10-22T00:26:33.086Z,71.03
2017-10-22T00:27:39.844Z,71.04
2017-10-22T00:28:46.630Z,71.06
2017-10-22T00:29:53.413Z,71.08
2017-10-22T00:31:00.455Z,71.12
2017-10-22T00:32:07.225Z,71.14
2017-10-22T00:33:14.110Z,71.16
2017-10-22T00:34:20.908Z,71.20
2017-10-22T00:35:27.810Z,71.20
2017-10-22T00:36:34.690Z,71.22
2017-10-22T00:37:41.478Z,71.24
2017-10-22T00:38:48.498Z,71.26
2017-10-22T00:39:55.348Z,71.32
2017-10-22T00:41:02.215Z,71.31
2017-10-22T00:42:09.123Z,71.30
2017-10-22T00:43:15.966Z,71.26
2017-10-22T00:44:22.786Z,71.33
2017-10-22T00:45:30.716Z,71.41
2017-10-22T00:46:36.692Z,71.43
2017-10-22T00:47:43.460Z,71.43
2017-10-22T00:48:50.241Z,71.45
2017-10-22T00:49:57.054Z,71.44
2017-10-22T00:51:03.865Z,71.49
2017-10-22T00:52:10.749Z,71.54
2017-10-22T00:53:17.595Z,71.59
2017-10-22T00:54:24.768Z,71.60
2017-10-22T00:55:31.550Z,71.62
2017-10-22T00:56:38.371Z,71.72
2017-10-22T00:57:45.217Z,71.63
2017-10-22T00:58:52.027Z,71.68
2017-10-22T00:59:59.074Z,71.71
2017-10-22T01:01:05.989Z,71.80
2017-10-22T01:02:13.106Z,71.80
2017-10-22T01:03:20.218Z,71.81
2017-10-22T01:04:27.039Z,71.84
2017-10-22T01:05:33.987Z,71.88
2017-10-22T01:06:40.826Z,71.85
2017-10-22T01:07:47.595Z,71.90
2017-10-22T01:08:54.363Z,71.95
2017-10-22T01:10:01.275Z,72.02
2017-10-22T01:11:08.113Z,72.09
2017-10-22T01:12:14.899Z,72.08
2017-10-22T01:13:21.841Z,72.10
2017-10-22T01:14:29.171Z,72.10
2017-10-22T01:15:35.315Z,72.17
2017-10-22T01:16:42.245Z,72.14
2017-10-22T01:17:49.025Z,72.18
2017-10-22T01:18:55.802Z,72.22
2017-10-22T01:20:02.655Z,72.25
2017-10-22T01:21:09.336Z,72.28
2017-10-22T01:22:16.198Z,72.29
2017-10-22T01:23:23.072Z,72.34
2017-10-22T01:24:29.958Z,72.41
2017-10-22T01:25:36.809Z,72.45
2017-10-22T01:26:43.633Z,72.48
2017-10-22T01:27:50.537Z,72.50
2017-10-22T01:28:57.433Z,72.45
2017-10-22T01:30:04.319Z,72.46
2017-10-22T01:31:11.138Z,72.49
2017-10-22T01:32:17.989Z,72.51
2017-10-22T01:33:24.860Z,72.56
2017-10-22T01:34:31.762Z,72.56
2017-10-22T01:35:38.574Z,72.62
2017-10-22T01:36:45.413Z,72.62
2017-10-22T01:37:52.218Z,72.62
2017-10-22T01:38:59.034Z,72.63
2017-10-22T01:40:05.886Z,72.76
2017-10-22T01:41:12.705Z,72.74
2017-10-22T01:42:19.633Z,72.76
2017-10-22T01:43:26.442Z,72.79
2017-10-22T01:44:33.395Z,72.77
2017-10-22T01:45:40.234Z,72.79
2017-10-22T01:46:47.177Z,72.79
2017-10-22T01:47:54.157Z,72.82
2017-10-22T01:49:00.994Z,72.85
2017-10-22T01:50:07.810Z,72.88
2017-10-22T01:51:14.733Z,72.83
2017-10-22T01:52:21.564Z,72.83
2017-10-22T01:53:28.394Z,72.81
2017-10-22T01:54:35.223Z,72.83
2017-10-22T01:55:42.133Z,72.82
2017-10-22T01:56:48.965Z,72.80
2017-10-22T01:57:56.022Z,72.82
2017-10-22T01:59:02.857Z,72.86
2017-10-22T02:00:09.673Z,72.87
2017-10-22T02:01:16.442Z,72.90
2017-10-22T02:02:23.205Z,72.88
2017-10-22T02:03:30.002Z,72.83
2017-10-22T02:04:36.791Z,72.84
2017-10-22T02:05:43.613Z,72.87
2017-10-22T02:06:50.409Z,72.86
2017-10-22T02:07:57.331Z,72.88
2017-10-22T02:09:04.174Z,72.83
2017-10-22T02:10:10.982Z,72.88
2017-10-22T02:11:18.214Z,72.93
2017-10-22T02:12:25.045Z,72.87
2017-10-22T02:13:31.853Z,72.82
2017-10-22T02:14:38.781Z,72.87
2017-10-22T02:15:45.605Z,72.87
2017-10-22T02:16:52.473Z,72.84
2017-10-22T02:17:59.230Z,72.78
2017-10-22T02:19:06.022Z,72.78
2017-10-22T02:20:12.946Z,72.76
2017-10-22T02:21:20.275Z,72.74
2017-10-22T02:22:26.699Z,72.70
2017-10-22T02:23:33.487Z,72.78
2017-10-22T02:24:40.291Z,72.70
2017-10-22T02:25:47.169Z,72.71
2017-10-22T02:26:54.010Z,72.70
2017-10-22T02:28:00.858Z,72.62
2017-10-22T02:29:07.642Z,72.61
2017-10-22T02:30:14.440Z,72.60
2017-10-22T02:31:21.234Z,72.59
2017-10-22T02:32:28.016Z,72.60
2017-10-22T02:33:34.841Z,72.60
2017-10-22T02:34:41.659Z,72.52
2017-10-22T02:35:48.471Z,72.54
2017-10-22T02:36:55.354Z,72.49
2017-10-22T02:38:02.086Z,72.47
2017-10-22T02:39:08.838Z,72.49
2017-10-22T02:40:15.701Z,72.48
2017-10-22T02:41:22.513Z,72.53
2017-10-22T02:42:29.265Z,72.50
2017-10-22T02:43:36.166Z,72.46
2017-10-22T02:44:42.954Z,72.47
2017-10-22T02:45:49.826Z,72.43
2017-10-22T02:46:56.598Z,72.44
2017-10-22T02:48:03.374Z,72.45
2017-10-22T02:49:10.162Z,72.42
2017-10-22T02:50:16.898Z,72.40
2017-10-22T02:51:23.805Z,72.37
2017-10-22T02:52:30.647Z,72.37
2017-10-22T02:53:37.482Z,72.43
2017-10-22T02:54:44.298Z,72.37
2017-10-22T02:55:51.195Z,72.33
2017-10-22T02:56:58.041Z,72.32
2017-10-22T02:58:04.841Z,72.25
2017-10-22T02:59:11.603Z,72.25
2017-10-22T03:00:18.725Z,72.24
2017-10-22T03:01:25.085Z,72.25
2017-10-22T03:02:31.866Z,72.22
2017-10-22T03:03:38.666Z,72.21
2017-10-22T03:04:45.416Z,72.24
2017-10-22T03:05:52.258Z,72.18
2017-10-22T03:06:59.149Z,72.15
2017-10-22T03:08:05.954Z,72.20
2017-10-22T03:09:12.741Z,72.16
2017-10-22T03:10:19.578Z,72.16
2017-10-22T03:11:26.392Z,72.17
2017-10-22T03:12:33.262Z,72.12
2017-10-22T03:13:40.123Z,72.15
2017-10-22T03:14:46.962Z,72.17
2017-10-22T03:15:53.750Z,72.12
2017-10-22T03:17:00.540Z,72.10
2017-10-22T03:18:07.328Z,72.13
2017-10-22T03:19:14.104Z,72.09
2017-10-22T03:20:20.897Z,72.07
2017-10-22T03:21:27.669Z,72.06
2017-10-22T03:22:34.486Z,72.07
2017-10-22T03:23:41.732Z,72.08
2017-10-22T03:24:48.080Z,72.05
2017-10-22T03:25:54.894Z,72.04
2017-10-22T03:27:01.753Z,72.04
2017-10-22T03:28:08.553Z,72.00
2017-10-22T03:29:15.497Z,72.04
2017-10-22T03:30:22.314Z,72.06
2017-10-22T03:31:29.262Z,72.03
2017-10-22T03:32:36.053Z,72.00
2017-10-22T03:33:42.818Z,72.03
2017-10-22T03:34:49.589Z,72.07
2017-10-22T03:35:56.430Z,72.04
2017-10-22T03:37:03.354Z,72.04
2017-10-22T03:38:10.106Z,72.05
2017-10-22T03:39:16.901Z,72.03
2017-10-22T03:40:23.713Z,71.98
2017-10-22T03:41:30.497Z,72.05
2017-10-22T03:42:37.272Z,71.97
2017-10-22T03:43:44.077Z,71.96
2017-10-22T03:44:50.865Z,71.95
2017-10-22T03:45:58.137Z,71.94
2017-10-22T03:47:04.471Z,71.98
2017-10-22T03:48:11.238Z,72.04
2017-10-22T03:49:17.993Z,72.01
2017-10-22T03:50:24.786Z,71.97
2017-10-22T03:51:31.597Z,71.94
2017-10-22T03:52:38.375Z,71.99
2017-10-22T03:53:45.157Z,71.96
2017-10-22T03:54:51.919Z,71.94
2017-10-22T03:55:58.714Z,71.94
2017-10-22T03:57:05.536Z,71.90
2017-10-22T03:58:12.338Z,71.90
2017-10-22T03:59:19.269Z,71.89
2017-10-22T04:00:26.093Z,71.96
2017-10-22T04:01:32.866Z,71.96
2017-10-22T04:02:39.630Z,71.90
2017-10-22T04:03:46.386Z,71.94
2017-10-22T04:04:53.142Z,71.86
2017-10-22T04:05:59.978Z,71.88
2017-10-22T04:07:06.774Z,71.90
2017-10-22T04:08:13.555Z,71.87
2017-10-22T04:09:20.346Z,71.86
2017-10-22T04:10:27.145Z,71.88
2017-10-22T04:11:33.912Z,71.85
2017-10-22T04:12:40.742Z,71.84
2017-10-22T04:13:47.581Z,71.82
2017-10-22T04:14:54.758Z,71.86
2017-10-22T04:16:01.109Z,71.89
2017-10-22T04:17:07.893Z,71.87
2017-10-22T04:18:14.653Z,71.86
2017-10-22T04:19:21.746Z,71.85
2017-10-22T04:20:28.554Z,71.85
2017-10-22T04:21:35.359Z,71.85
2017-10-22T04:22:42.154Z,71.85
2017-10-22T04:23:48.926Z,71.88
2017-10-22T04:24:55.694Z,71.89
2017-10-22T04:26:02.574Z,71.92
2017-10-22T04:27:09.372Z,71.92
2017-10-22T04:28:16.149Z,71.92
2017-10-22T04:29:22.911Z,71.91
2017-10-22T04:30:29.705Z,71.93
2017-10-22T04:31:36.514Z,71.93
2017-10-22T04:32:43.270Z,72.00
2017-10-22T04:33:50.094Z,71.98
2017-10-22T04:34:56.867Z,71.95
2017-10-22T04:36:03.765Z,71.98
2017-10-22T04:37:10.593Z,72.06
2017-10-22T04:38:17.379Z,72.10
2017-10-22T04:39:24.326Z,72.19
2017-10-22T04:40:31.087Z,72.21
2017-10-22T04:41:37.963Z,72.24
2017-10-22T04:42:44.734Z,72.32
2017-10-22T04:43:51.534Z,72.35
2017-10-22T04:44:58.342Z,72.40
2017-10-22T04:46:05.139Z,72.41
2017-10-22T04:47:11.942Z,72.45
2017-10-22T04:48:18.699Z,72.52
2017-10-22T04:49:25.504Z,72.61
2017-10-22T04:50:32.259Z,72.67
2017-10-22T04:51:39.114Z,72.73
2017-10-22T04:52:46.118Z,72.83
2017-10-22T04:53:52.857Z,72.90
2017-10-22T04:54:59.643Z,72.93
2017-10-22T04:56:06.412Z,72.99
2017-10-22T04:57:13.194Z,73.03
2017-10-22T04:58:19.943Z,73.12
2017-10-22T04:59:26.709Z,73.13
2017-10-22T05:00:33.861Z,73.19
2017-10-22T05:01:40.687Z,73.25
2017-10-22T05:02:47.438Z,73.26
2017-10-22T05:03:54.197Z,73.31
2017-10-22T05:05:01.048Z,73.38
2017-10-22T05:06:08.150Z,73.42
2017-10-22T05:07:14.947Z,73.45
2017-10-22T05:08:21.766Z,73.50
2017-10-22T05:09:28.537Z,73.56
2017-10-22T05:10:35.411Z,73.59
2017-10-22T05:11:42.559Z,73.66
2017-10-22T05:12:49.421Z,73.73
2017-10-22T05:13:56.200Z,73.73
2017-10-22T05:15:02.964Z,73.75
2017-10-22T05:16:09.722Z,73.79
2017-10-22T05:17:16.596Z,73.82
2017-10-22T05:18:23.542Z,73.87
2017-10-22T05:19:30.281Z,73.92
2017-10-22T05:20:37.047Z,74.00
2017-10-22T05:21:43.889Z,74.03
2017-10-22T05:22:50.717Z,74.05
2017-10-22T05:23:57.572Z,74.09
2017-10-22T05:25:04.324Z,74.13
2017-10-22T05:26:11.090Z,74.13
2017-10-22T05:27:17.852Z,74.17
2017-10-22T05:28:24.929Z,74.20
2017-10-22T05:29:31.670Z,74.26
2017-10-22T05:30:38.435Z,74.27
2017-10-22T05:31:45.214Z,74.29
2017-10-22T05:32:51.960Z,74.33
2017-10-22T05:33:58.961Z,74.33
2017-10-22T05:35:05.809Z,74.36
2017-10-22T05:36:12.598Z,74.33
2017-10-22T05:37:19.412Z,74.37
2017-10-22T05:38:26.557Z,74.44
2017-10-22T05:39:33.335Z,74.49
2017-10-22T05:40:40.118Z,74.52
2017-10-22T05:41:46.877Z,74.51
2017-10-22T05:42:53.727Z,74.52
2017-10-22T05:44:00.508Z,74.53
2017-10-22T05:45:07.357Z,74.53
2017-10-22T05:46:14.096Z,74.57
2017-10-22T05:47:20.889Z,74.60
2017-10-22T05:48:28.054Z,74.62
2017-10-22T05:49:34.832Z,74.58
2017-10-22T05:50:41.601Z,74.60
2017-10-22T05:51:48.543Z,74.65
2017-10-22T05:52:55.207Z,74.63
2017-10-22T05:54:01.997Z,74.64
2017-10-22T05:55:08.802Z,74.68
2017-10-22T05:56:15.865Z,74.68
2017-10-22T05:57:22.838Z,74.68
2017-10-22T05:58:29.613Z,74.69
2017-10-22T05:59:36.457Z,74.70
2017-10-22T06:00:43.279Z,74.63
2017-10-22T06:01:50.058Z,74.71
2017-10-22T06:02:56.867Z,74.69
2017-10-22T06:04:03.650Z,74.72
2017-10-22T06:05:10.791Z,74.68
2017-10-22T06:06:17.607Z,74.67
2017-10-22T06:07:24.688Z,74.67
2017-10-22T06:08:31.634Z,74.72
2017-10-22T06:09:38.496Z,74.79
2017-10-22T06:10:45.405Z,74.75
2017-10-22T06:11:52.291Z,74.75
2017-10-22T06:12:59.126Z,74.81
2017-10-22T06:14:06.213Z,74.79
2017-10-22T06:15:13.258Z,74.72
2017-10-22T06:16:20.082Z,74.72
2017-10-22T06:17:26.922Z,74.72
2017-10-22T06:18:33.845Z,74.74
2017-10-22T06:19:40.644Z,74.71
2017-10-22T06:20:47.641Z,74.72
2017-10-22T06:21:54.542Z,74.71
2017-10-22T06:23:01.317Z,74.74
2017-10-22T06:24:08.229Z,74.72
2017-10-22T06:25:15.044Z,74.77
2017-10-22T06:26:21.874Z,74.78
2017-10-22T06:27:29.013Z,74.77
2017-10-22T06:28:35.853Z,74.76
2017-10-22T06:29:42.626Z,74.82
2017-10-22T06:30:49.378Z,74.85
2017-10-22T06:31:56.113Z,74.83
2017-10-22T06:33:02.929Z,74.89
2017-10-22T06:34:09.741Z,74.88
2017-10-22T06:35:16.643Z,74.89
2017-10-22T06:36:23.478Z,74.92
2017-10-22T06:37:30.278Z,74.90
2017-10-22T06:38:37.073Z,74.97
2017-10-22T06:39:43.919Z,75.01
2017-10-22T06:40:50.733Z,75.04
2017-10-22T06:41:57.634Z,75.02
2017-10-22T06:43:04.506Z,75.11
2017-10-22T06:44:11.322Z,75.14
2017-10-22T06:45:18.339Z,75.15
2017-10-22T06:46:25.153Z,75.13
2017-10-22T06:47:32.006Z,75.20
2017-10-22T06:48:38.777Z,75.20
2017-10-22T06:49:45.577Z,75.29
2017-10-22T06:50:52.551Z,75.26
2017-10-22T06:51:59.359Z,75.31
2017-10-22T06:53:06.304Z,75.33
2017-10-22T06:54:13.249Z,75.33
2017-10-22T06:55:20.118Z,75.41
2017-10-22T06:56:27.253Z,75.41
2017-10-22T06:57:33.790Z,75.37
2017-10-22T06:58:40.746Z,75.35
2017-10-22T06:59:47.630Z,75.31
2017-10-22T07:00:54.594Z,75.38
2017-10-22T07:02:01.533Z,75.40
2017-10-22T07:03:08.438Z,75.43
2017-10-22T07:04:15.225Z,75.47
2017-10-22T07:05:22.013Z,75.52
2017-10-22T07:06:29.002Z,75.53
2017-10-22T07:07:35.854Z,75.54
2017-10-22T07:08:42.761Z,75.58
2017-10-22T07:09:49.561Z,75.65
2017-10-22T07:10:56.425Z,75.65
2017-10-22T07:12:03.341Z,75.72
2017-10-22T07:13:10.314Z,75.75
2017-10-22T07:14:17.109Z,75.75
2017-10-22T07:15:23.920Z,75.79
2017-10-22T07:16:30.655Z,75.80
2017-10-22T07:17:37.451Z,75.83
2017-10-22T07:18:44.257Z,75.88
2017-10-22T07:19:51.026Z,75.93
2017-10-22T07:20:58.116Z,75.99
2017-10-22T07:22:04.932Z,76.04
2017-10-22T07:23:11.765Z,76.08
2017-10-22T07:24:18.562Z,76.07
2017-10-22T07:25:25.306Z,76.10
2017-10-22T07:26:32.142Z,76.17
2017-10-22T07:27:38.925Z,76.18
2017-10-22T07:28:45.690Z,76.21
2017-10-22T07:29:52.497Z,76.23
2017-10-22T07:30:59.254Z,76.29
2017-10-22T07:32:06.175Z,76.23
2017-10-22T07:33:13.002Z,76.27
2017-10-22T07:34:19.805Z,76.32
2017-10-22T07:35:26.616Z,76.33
2017-10-22T07:36:33.550Z,76.38
2017-10-22T07:37:40.466Z,76.41
2017-10-22T07:38:47.393Z,76.43
2017-10-22T07:39:54.204Z,76.43
2017-10-22T07:41:01.123Z,76.48
2017-10-22T07:42:07.929Z,76.54
2017-10-22T07:43:14.990Z,76.53
2017-10-22T07:44:21.773Z,76.50
2017-10-22T07:45:28.606Z,76.48
2017-10-22T07:46:35.428Z,76.50
2017-10-22T07:47:42.385Z,76.58
2017-10-22T07:48:49.198Z,76.59
2017-10-22T07:49:56.010Z,76.67
2017-10-22T07:51:02.910Z,76.69
2017-10-22T07:52:09.889Z,76.71
2017-10-22T07:53:16.800Z,76.72
2017-10-22T07:54:23.605Z,76.76
2017-10-22T07:55:30.402Z,76.78
2017-10-22T07:56:37.230Z,76.83
2017-10-22T07:57:44.066Z,76.84
2017-10-22T07:58:50.865Z,76.85
2017-10-22T07:59:57.627Z,76.86
2017-10-22T08:01:04.421Z,76.88
2017-10-22T08:02:11.500Z,76.90
2017-10-22T08:03:18.302Z,76.91
2017-10-22T08:04:25.098Z,76.95
2017-10-22T08:05:31.901Z,77.06
2017-10-22T08:06:39.270Z,77.07
2017-10-22T08:07:45.950Z,77.10
2017-10-22T08:08:52.806Z,77.18
2017-10-22T08:09:59.575Z,77.13
2017-10-22T08:11:06.493Z,77.14
2017-10-22T08:12:13.457Z,77.20
2017-10-22T08:13:20.597Z,77.20
2017-10-22T08:14:27.266Z,77.24
2017-10-22T08:15:34.147Z,77.23
2017-10-22T08:16:41.195Z,77.29
2017-10-22T08:17:48.081Z,77.35
2017-10-22T08:18:55.091Z,77.37
2017-10-22T08:20:01.663Z,77.32
2017-10-22T08:21:08.501Z,77.36
2017-10-22T08:22:15.326Z,77.30
2017-10-22T08:23:22.106Z,77.28
2017-10-22T08:24:28.873Z,77.27
2017-10-22T08:25:35.715Z,77.22
2017-10-22T08:26:42.480Z,77.32
2017-10-22T08:27:49.362Z,77.32
2017-10-22T08:28:56.128Z,77.36
2017-10-22T08:30:02.979Z,77.30
2017-10-22T08:31:09.773Z,77.34
2017-10-22T08:32:16.569Z,77.39
2017-10-22T08:33:23.362Z,77.35
2017-10-22T08:34:30.383Z,77.41
2017-10-22T08:35:37.370Z,77.40
2017-10-22T08:36:44.215Z,77.34
2017-10-22T08:37:50.987Z,77.42
2017-10-22T08:38:57.769Z,77.46
2017-10-22T08:40:04.570Z,77.44
2017-10-22T08:41:11.378Z,77.44
2017-10-22T08:42:18.174Z,77.47
2017-10-22T08:43:24.994Z,77.46
2017-10-22T08:44:32.011Z,77.39
2017-10-22T08:45:38.878Z,77.43
2017-10-22T08:46:46.034Z,77.36
2017-10-22T08:47:52.921Z,77.29
2017-10-22T08:48:59.838Z,77.32
2017-10-22T08:50:06.729Z,77.26
2017-10-22T08:51:13.695Z,77.25
2017-10-22T08:52:20.549Z,77.26
2017-10-22T08:53:27.409Z,77.34
2017-10-22T08:54:34.464Z,77.32
2017-10-22T08:55:41.307Z,77.26
2017-10-22T08:56:48.090Z,77.24
2017-10-22T08:57:54.890Z,77.25
2017-10-22T08:59:01.693Z,77.20
2017-10-22T08:59:28.183Z,77.20
2017-10-22T09:00:35.052Z,77.21
2017-10-22T09:01:41.982Z,77.30
2017-10-22T09:02:48.964Z,77.31
2017-10-22T09:03:55.770Z,77.36
2017-10-22T09:05:02.704Z,77.30
2017-10-22T09:06:09.673Z,77.39
2017-10-22T09:07:16.607Z,77.41
2017-10-22T09:08:23.574Z,77.44
2017-10-22T09:09:30.515Z,77.41
2017-10-22T09:10:37.425Z,77.47
2017-10-22T09:11:44.481Z,77.55
2017-10-22T09:12:51.450Z,77.52
2017-10-22T09:13:58.734Z,77.56
2017-10-22T09:15:05.693Z,77.59
2017-10-22T09:16:12.515Z,77.60
2017-10-22T09:17:19.311Z,77.61
2017-10-22T09:18:26.191Z,77.66
2017-10-22T09:19:33.281Z,77.63
2017-10-22T09:20:40.126Z,77.64
2017-10-22T09:21:47.030Z,77.66
2017-10-22T09:22:53.946Z,77.63
2017-10-22T09:24:00.841Z,77.69
2017-10-22T09:25:07.674Z,77.73
2017-10-22T09:26:14.496Z,77.76
2017-10-22T09:27:21.390Z,77.81
2017-10-22T09:28:31.863Z,77.81
2017-10-22T09:29:35.342Z,77.86
2017-10-22T09:30:42.242Z,77.89
2017-10-22T09:31:49.155Z,77.90
2017-10-22T09:32:56.077Z,77.98
2017-10-22T09:34:02.919Z,78.00
2017-10-22T09:35:09.830Z,78.03
2017-10-22T09:36:16.715Z,78.01
2017-10-22T09:37:24.414Z,78.07
2017-10-22T09:38:30.574Z,78.13
2017-10-22T09:39:37.578Z,78.19
2017-10-22T09:40:44.589Z,78.22
2017-10-22T09:41:51.430Z,78.19
2017-10-22T09:42:58.415Z,78.27
2017-10-22T09:44:05.630Z,78.29
2017-10-22T09:45:12.230Z,78.27
2017-10-22T09:46:19.278Z,78.35
2017-10-22T09:47:26.002Z,78.35
2017-10-22T09:48:32.914Z,78.38
2017-10-22T09:49:39.848Z,78.42
2017-10-22T09:50:46.782Z,78.50
2017-10-22T09:51:53.714Z,78.47
2017-10-22T09:53:00.715Z,78.53
2017-10-22T09:54:07.893Z,78.51
2017-10-22T09:55:14.344Z,78.53
2017-10-22T09:56:21.557Z,78.58
2017-10-22T09:57:28.442Z,78.71
2017-10-22T09:58:35.311Z,78.77
2017-10-22T09:59:42.319Z,78.79
2017-10-22T10:00:49.229Z,78.77
2017-10-22T10:01:56.162Z,78.77
2017-10-22T10:03:02.958Z,78.81
2017-10-22T10:04:09.771Z,78.81
2017-10-22T10:05:16.621Z,78.81
2017-10-22T10:06:23.855Z,78.84
2017-10-22T10:07:30.294Z,78.88
2017-10-22T10:08:37.090Z,78.88
2017-10-22T10:09:43.895Z,78.92
2017-10-22T10:10:50.774Z,79.01
2017-10-22T10:11:57.634Z,79.06
2017-10-22T10:13:04.854Z,78.99
2017-10-22T10:14:11.145Z,79.01
2017-10-22T10:15:18.009Z,79.04
2017-10-22T10:16:24.822Z,79.10
2017-10-22T10:17:31.730Z,79.11
2017-10-22T10:18:38.576Z,79.12
2017-10-22T10:19:45.373Z,79.15
2017-10-22T10:20:52.197Z,79.24
2017-10-22T10:21:59.319Z,79.24
2017-10-22T10:23:05.709Z,79.26
2017-10-22T10:24:12.538Z,79.29
2017-10-22T10:25:19.315Z,79.33
2017-10-22T10:26:26.120Z,79.36
2017-10-22T10:27:32.937Z,79.38
2017-10-22T10:28:39.785Z,79.39
2017-10-22T10:29:46.594Z,79.39
2017-10-22T10:30:53.413Z,79.43
2017-10-22T10:32:00.242Z,79.44
2017-10-22T10:33:07.362Z,79.45
2017-10-22T10:34:14.217Z,79.47
2017-10-22T10:35:21.037Z,79.49
2017-10-22T10:36:27.977Z,79.52
2017-10-22T10:37:34.798Z,79.53
2017-10-22T10:38:41.826Z,79.55
2017-10-22T10:39:48.417Z,79.60
2017-10-22T10:40:55.217Z,79.58
2017-10-22T10:42:02.114Z,79.61
2017-10-22T10:43:08.922Z,79.67
2017-10-22T10:44:15.743Z,79.72
2017-10-22T10:45:22.579Z,79.72
2017-10-22T10:46:29.430Z,79.74
2017-10-22T10:47:36.236Z,79.77
2017-10-22T10:48:43.073Z,79.76
2017-10-22T10:49:49.961Z,79.78
2017-10-22T10:50:56.773Z,79.77
2017-10-22T10:52:03.614Z,79.83
2017-10-22T10:53:10.540Z,79.87
2017-10-22T10:54:17.454Z,79.87
2017-10-22T10:55:24.258Z,79.95
2017-10-22T10:56:31.186Z,79.98
2017-10-22T10:57:37.978Z,80.03
2017-10-22T10:58:44.866Z,80.07
2017-10-22T10:59:51.652Z,80.06
2017-10-22T11:00:58.478Z,80.16
2017-10-22T11:02:05.330Z,80.14
2017-10-22T11:03:12.466Z,80.17
2017-10-22T11:04:19.276Z,80.31
2017-10-22T11:05:26.229Z,80.39
2017-10-22T11:06:33.065Z,80.42
2017-10-22T11:07:39.971Z,80.47
2017-10-22T11:08:47.086Z,80.53
2017-10-22T11:09:53.869Z,80.64
2017-10-22T11:11:00.807Z,80.69
2017-10-22T11:12:07.705Z,80.76
2017-10-22T11:13:14.686Z,80.83
2017-10-22T11:14:21.681Z,80.88
2017-10-22T11:15:28.642Z,80.89
2017-10-22T11:16:35.439Z,80.95
2017-10-22T11:17:42.243Z,81.07
2017-10-22T11:18:49.054Z,81.17
2017-10-22T11:19:56.019Z,81.26
2017-10-22T11:21:02.794Z,81.33
2017-10-22T11:22:09.577Z,81.34
2017-10-22T11:23:16.477Z,81.32
2017-10-22T11:24:23.314Z,81.41
2017-10-22T11:25:30.186Z,81.49
2017-10-22T11:26:37.049Z,81.51
2017-10-22T11:27:43.848Z,81.53
2017-10-22T11:28:50.638Z,81.51
2017-10-22T11:29:57.406Z,81.50
2017-10-22T11:31:04.278Z,81.57
2017-10-22T11:32:12.532Z,81.66
2017-10-22T11:33:17.943Z,81.72
2017-10-22T11:34:24.776Z,81.68
2017-10-22T11:35:31.762Z,81.76
2017-10-22T11:36:38.580Z,81.83
2017-10-22T11:37:46.110Z,81.87
2017-10-22T11:38:52.260Z,81.91
2017-10-22T11:39:59.262Z,81.93
2017-10-22T11:41:06.081Z,81.93
2017-10-22T11:42:12.850Z,81.96
2017-10-22T11:43:19.617Z,81.99
2017-10-22T11:44:26.480Z,82.04
2017-10-22T11:45:33.255Z,82.11
2017-10-22T11:46:40.034Z,82.12
2017-10-22T11:47:46.854Z,82.22
2017-10-22T11:48:54.102Z,82.16
2017-10-22T11:50:00.404Z,82.18
2017-10-22T11:51:07.263Z,82.29
2017-10-22T11:52:14.058Z,82.41
2017-10-22T11:53:20.814Z,82.50
2017-10-22T11:54:27.665Z,82.54
2017-10-22T11:55:34.537Z,82.49
2017-10-22T11:56:41.397Z,82.53
2017-10-22T11:57:48.130Z,82.52
2017-10-22T11:58:55.018Z,82.60
2017-10-22T12:00:01.802Z,82.64
2017-10-22T12:01:08.568Z,82.77
2017-10-22T12:02:16.281Z,82.83
2017-10-22T12:03:22.177Z,82.84
2017-10-22T12:04:29.109Z,82.82
2017-10-22T12:05:35.937Z,82.79
2017-10-22T12:06:42.837Z,82.75
2017-10-22T12:07:49.702Z,82.79
2017-10-22T12:08:56.545Z,82.83
2017-10-22T12:10:03.301Z,82.82
2017-10-22T12:11:10.130Z,82.83
2017-10-22T12:12:16.949Z,82.84
2017-10-22T12:13:23.868Z,82.88
2017-10-22T12:14:30.734Z,82.91
2017-10-22T12:15:37.706Z,82.92
2017-10-22T12:16:44.639Z,82.91
2017-10-22T12:17:51.394Z,82.91
2017-10-22T12:18:58.211Z,83.00
2017-10-22T12:20:04.978Z,83.04
2017-10-22T12:21:11.793Z,83.10
2017-10-22T12:22:18.642Z,83.17
2017-10-22T12:23:26.254Z,83.23
2017-10-22T12:24:32.211Z,83.23
2017-10-22T12:25:39.074Z,83.30
2017-10-22T12:26:45.949Z,83.23
2017-10-22T12:27:52.727Z,83.24
2017-10-22T12:28:59.529Z,83.35
2017-10-22T12:30:06.342Z,83.41
2017-10-22T12:31:13.214Z,83.49
2017-10-22T12:32:20.098Z,83.58
2017-10-22T12:33:26.902Z,83.66
2017-10-22T12:34:33.908Z,83.58
2017-10-22T12:35:40.603Z,83.61
2017-10-22T12:36:47.642Z,83.65
2017-10-22T12:37:54.439Z,83.71
2017-10-22T12:39:01.335Z,83.81
2017-10-22T12:40:08.239Z,83.90
2017-10-22T12:41:15.214Z,83.80
2017-10-22T12:42:22.169Z,83.77
2017-10-22T12:43:28.974Z,83.88
2017-10-22T12:44:35.982Z,83.99
2017-10-22T12:45:42.918Z,83.99
2017-10-22T12:46:49.582Z,84.00
2017-10-22T12:47:56.330Z,84.03
2017-10-22T12:49:03.182Z,84.02
2017-10-22T12:50:09.941Z,84.04
2017-10-22T12:51:16.718Z,84.01
2017-10-22T12:52:23.672Z,83.98
2017-10-22T12:53:30.446Z,84.10
2017-10-22T12:54:37.247Z,84.14
2017-10-22T12:55:44.202Z,84.09
2017-10-22T12:56:51.234Z,84.10
2017-10-22T12:57:58.000Z,84.06
2017-10-22T12:59:04.803Z,84.15
2017-10-22T13:00:11.559Z,84.19
2017-10-22T13:01:18.686Z,84.24
2017-10-22T13:02:25.275Z,84.28
2017-10-22T13:03:32.053Z,84.27
2017-10-22T13:04:38.846Z,84.30
2017-10-22T13:05:45.719Z,84.37
2017-10-22T13:06:52.777Z,84.34
2017-10-22T13:07:59.656Z,84.40
2017-10-22T13:09:06.548Z,84.43
2017-10-22T13:10:13.373Z,84.40
2017-10-22T13:11:20.167Z,84.38
2017-10-22T13:12:26.894Z,84.42
2017-10-22T13:13:33.754Z,84.42
2017-10-22T13:14:40.610Z,84.50
2017-10-22T13:15:47.372Z,84.42
2017-10-22T13:16:54.294Z,84.35
2017-10-22T13:18:02.082Z,84.33
2017-10-22T13:19:08.234Z,84.33
2017-10-22T13:20:15.114Z,84.35
2017-10-22T13:21:22.084Z,84.26
2017-10-22T13:22:29.037Z,84.15
2017-10-22T13:23:36.146Z,84.21
2017-10-22T13:24:43.025Z,84.35
2017-10-22T13:25:49.903Z,84.25
2017-10-22T13:26:56.689Z,84.10
2017-10-22T13:28:03.680Z,84.10
2017-10-22T13:29:10.615Z,84.11
2017-10-22T13:30:17.402Z,84.14
2017-10-22T13:31:24.185Z,84.10
2017-10-22T13:32:31.229Z,83.97
2017-10-22T13:33:38.322Z,84.06
2017-10-22T13:34:45.304Z,84.01
2017-10-22T13:35:52.073Z,83.91
2017-10-22T13:36:58.924Z,83.78
2017-10-22T13:38:05.778Z,83.72
2017-10-22T13:39:12.935Z,83.83
2017-10-22T13:40:19.835Z,83.82
2017-10-22T13:41:26.874Z,83.83
2017-10-22T13:42:33.757Z,83.84
2017-10-22T13:43:40.606Z,83.90
2017-10-22T13:44:47.396Z,83.93
2017-10-22T13:45:54.230Z,83.92
2017-10-22T13:47:01.026Z,83.83
2017-10-22T13:48:08.002Z,83.82
2017-10-22T13:49:15.049Z,83.75
2017-10-22T13:50:21.922Z,83.67
2017-10-22T13:51:28.810Z,83.62
2017-10-22T13:52:35.674Z,83.53
2017-10-22T13:53:42.525Z,83.46
2017-10-22T13:54:49.517Z,83.31
2017-10-22T13:55:56.481Z,83.22
2017-10-22T13:57:03.292Z,83.17
2017-10-22T13:58:10.117Z,83.24
2017-10-22T13:59:16.926Z,83.15
2017-10-22T14:00:23.743Z,83.00
2017-10-22T14:01:30.612Z,83.02
2017-10-22T14:02:37.577Z,82.93
2017-10-22T14:03:44.452Z,82.80
2017-10-22T14:04:51.249Z,82.82
2017-10-22T14:05:58.191Z,82.81
2017-10-22T14:07:04.887Z,82.65
2017-10-22T14:08:11.843Z,82.66
2017-10-22T14:09:18.806Z,82.59
2017-10-22T14:10:25.807Z,82.59
2017-10-22T14:11:32.857Z,82.39
2017-10-22T14:12:39.914Z,82.36
2017-10-22T14:13:46.784Z,82.37
2017-10-22T14:14:53.849Z,82.33
2017-10-22T14:16:00.959Z,82.06
2017-10-22T14:17:07.744Z,82.00
2017-10-22T14:18:14.860Z,82.07
2017-10-22T14:19:22.314Z,82.00
2017-10-22T14:20:28.687Z,81.82